»·PEaware :: SWA696 KONT-KLAS

SWA696 :: KONT-KLAS

FLIGHT INFORMATION

Flight Status: Arrived
Operator:
Southwest Airlines
More flights by this operator :: More flights under this callsign
Pilot: Sanjiv Singh (4490)
Aircraft: BOEING 737-300
(B733)
More flights by this aircraft type
Origin: KONT Ontario Intl
United States
Destination: KLAS McCarran Intl
United States
More flights between these airports :: More routes between these airports
Route: +POM9 DAG KEPEC3
File this flight plan on PilotEdge
Remarks:
Altitude:
(Current/Filed)
25,000ft
Speed:
(Current/Filed)
430kts
Departed: 11-Jan-17 10:28 AM
Arrived: 11-Jan-17 11:15 AM
Distance/Time
Traveled:
171nm/0:47
Distance/Time
To Go:
Arrived

Flight Plot

Page will automatically refresh every two minutes.


Map Options




Map Legend


Flown Route
Filed Route
Departure Airport
Arrival Airport
Navaid (VOR, NDB)
Fix

Horizontal Profiles

Position Reports

Time Latitude Longitude Heading Altitude Ground
Speed
11-Jan-17 10:00 34.059855 -117.588659 359 950ft 0kts
11-Jan-17 10:01 34.059855 -117.588659 359 950ft 0kts
11-Jan-17 10:02 34.059855 -117.588659 359 950ft 0kts
11-Jan-17 10:03 34.059855 -117.588659 359 950ft 0kts
11-Jan-17 10:04 34.059855 -117.588659 359 950ft 0kts
11-Jan-17 10:05 34.059855 -117.588659 359 950ft 0kts
11-Jan-17 10:06 34.059855 -117.588659 359 950ft 0kts
11-Jan-17 10:07 34.059855 -117.588659 359 950ft 0kts
11-Jan-17 10:08 34.059855 -117.588659 359 950ft 0kts
11-Jan-17 10:09 34.059855 -117.588659 359 950ft 0kts
11-Jan-17 10:10 34.059855 -117.588659 359 950ft 0kts
11-Jan-17 10:11 34.059855 -117.588659 359 950ft 0kts
11-Jan-17 10:12 34.059855 -117.588659 359 950ft 0kts
11-Jan-17 10:13 34.059855 -117.588659 359 950ft 0kts
11-Jan-17 10:14 34.059855 -117.588659 359 950ft 0kts
11-Jan-17 10:15 34.059855 -117.588659 359 950ft 0kts
11-Jan-17 10:16 34.059855 -117.588659 359 950ft 0kts
11-Jan-17 10:17 34.059855 -117.588659 359 950ft 0kts
11-Jan-17 10:18 34.059469 -117.588672 10 950ft 0kts
11-Jan-17 10:19 34.059205 -117.589034 63 950ft 0kts
11-Jan-17 10:20 34.059205 -117.589033 58 950ft 0kts
11-Jan-17 10:21 34.059215 -117.588956 88 950ft 0kts
11-Jan-17 10:22 34.059215 -117.588956 88 950ft 0kts
11-Jan-17 10:23 34.059216 -117.588902 88 950ft 0kts
11-Jan-17 10:24 34.059231 -117.586712 90 950ft 12kts
11-Jan-17 10:25 34.058863 -117.582660 176 950ft 11kts
11-Jan-17 10:26 34.057599 -117.582688 179 950ft 0kts
11-Jan-17 10:27 34.056960 -117.582807 227 950ft 8kts
11-Jan-17 10:28 34.056833 -117.604907 267 1346ft 154kts
11-Jan-17 10:29 34.054740 -117.679181 272 4349ft 222kts
11-Jan-17 10:30 34.055148 -117.742588 288 6727ft 246kts
11-Jan-17 10:31 34.096987 -117.807359 311 7736ft 263kts
11-Jan-17 10:32 34.159145 -117.879375 310 10985ft 307kts
11-Jan-17 10:33 34.213148 -117.932085 332 13910ft 330kts
11-Jan-17 10:34 34.299333 -117.880463 58 16568ft 430kts
11-Jan-17 10:35 34.361075 -117.755732 52 18986ft 449kts
11-Jan-17 10:36 34.428767 -117.625517 52 21143ft 472kts
11-Jan-17 10:37 34.496560 -117.494296 52 23064ft 492kts
11-Jan-17 10:38 34.569217 -117.353125 52 24855ft 513kts
11-Jan-17 10:39 34.640074 -117.215786 53 24995ft 468kts
11-Jan-17 10:40 34.709710 -117.079629 53 25075ft 488kts
11-Jan-17 10:41 34.779764 -116.941829 52 24984ft 478kts
11-Jan-17 10:42 34.848887 -116.805495 53 25004ft 485kts
11-Jan-17 10:43 34.918988 -116.666576 54 25030ft 484kts
11-Jan-17 10:44 34.993701 -116.537339 37 24987ft 465kts
11-Jan-17 10:45 35.083573 -116.426736 37 24120ft 455kts
11-Jan-17 10:46 35.169655 -116.318922 38 22775ft 473kts
11-Jan-17 10:47 35.260092 -116.205833 39 20936ft 455kts
11-Jan-17 10:48 35.344490 -116.099597 39 19247ft 430kts
11-Jan-17 10:49 35.426683 -115.995823 39 17619ft 416kts
11-Jan-17 10:50 35.506092 -115.895275 39 16090ft 410kts
11-Jan-17 10:51 35.582706 -115.797983 39 14477ft 402kts
11-Jan-17 10:52 35.657728 -115.702469 39 13138ft 404kts
11-Jan-17 10:53 35.728840 -115.612841 38 13005ft 340kts
11-Jan-17 10:54 35.808565 -115.566636 349 13074ft 306kts
11-Jan-17 10:55 35.883751 -115.564023 345 13060ft 239kts
11-Jan-17 10:56 35.944233 -115.560154 358 12981ft 232kts
11-Jan-17 10:57 35.992568 -115.499706 67 11571ft 276kts
11-Jan-17 10:58 36.017577 -115.414369 65 10934ft 264kts
11-Jan-17 10:59 36.028009 -115.325539 99 10503ft 272kts
11-Jan-17 11:00 36.021491 -115.236499 98 9334ft 260kts
11-Jan-17 11:01 36.015670 -115.152409 98 8387ft 253kts
11-Jan-17 11:02 36.010155 -115.070778 99 8021ft 245kts
11-Jan-17 11:03 36.004549 -114.987488 99 8057ft 246kts
11-Jan-17 11:04 35.999456 -114.904819 98 8105ft 249kts
11-Jan-17 11:05 35.994377 -114.820774 97 8070ft 247kts
11-Jan-17 11:06 36.019890 -114.755516 12 6510ft 216kts
11-Jan-17 11:07 36.055537 -114.781385 291 6081ft 161kts
11-Jan-17 11:08 36.062705 -114.830248 261 6031ft 145kts
11-Jan-17 11:09 36.075431 -114.881943 281 4892ft 173kts
11-Jan-17 11:10 36.082204 -114.938843 265 5069ft 159kts
11-Jan-17 11:11 36.078008 -114.989535 255 5081ft 157kts
11-Jan-17 11:12 36.075018 -115.040419 258 4007ft 163kts
11-Jan-17 11:13 36.073870 -115.092530 261 2681ft 127kts
11-Jan-17 11:14 36.073636 -115.133972 263 2148ft 109kts
11-Jan-17 11:15 36.074795 -115.146042 300 2148ft 0kts
11-Jan-17 11:16 36.075710 -115.146573 0 2148ft 8kts
11-Jan-17 11:17 36.078209 -115.147202 349 2148ft 9kts
11-Jan-17 11:18 36.079459 -115.146752 27 2148ft 0kts
11-Jan-17 11:19 36.079459 -115.146752 27 2148ft 0kts
11-Jan-17 11:20 36.079459 -115.146752 27 2148ft 0kts

Navigation Log

Ident Type
1. KONT Airport
2. POM Navaid
3. SULZU Fix
4. FROUN Fix
5. DAG Navaid
6. MISEN Fix
7. CLARR Fix
8. SKEBR Fix
9. KEPEC Fix
10. IPUMY Fix
11. NIPZO Fix
12. SUNST Fix
13. KIMME Fix
14. CHIPZ Fix
15. POKRR Fix
16. PRINO Fix
17. KLAS Airport